Time;durP1;ratioP1;P1;durP2;ratioP2;P2;SDS_P1;SDS_P2;PMS_P1;PMS_P2;Temp;Humidity;BMP_temperature;BMP_pressure;BME280_temperature;BME280_humidity;BME280_pressure;Samples;Min_cycle;Max_cycle;Signal;HPM_P1;HPM_P2
2022/06/06 00:00:42;;;;;;;16.88;13.30;;;14.70;99.90;;;;;;5041787;28;20049;-42
2022/06/06 00:03:08;;;;;;;15.75;12.75;;;14.70;99.90;;;;;;5040922;28;20045;-41
2022/06/06 00:05:35;;;;;;;15.80;14.07;;;14.70;99.90;;;;;;5041655;28;20060;-42
2022/06/06 00:08:01;;;;;;;15.82;14.20;;;14.70;99.90;;;;;;5019419;28;20135;-41
2022/06/06 00:10:27;;;;;;;17.17;13.52;;;14.60;99.90;;;;;;5037546;28;20048;-44
2022/06/06 00:12:52;;;;;;;15.65;13.05;;;14.60;99.90;;;;;;5040947;28;20064;-42
2022/06/06 00:15:18;;;;;;;16.33;12.90;;;14.60;99.90;;;;;;5041429;28;20536;-42
2022/06/06 00:17:44;;;;;;;16.45;14.10;;;14.60;99.90;;;;;;5040079;28;20484;-42
2022/06/06 00:20:10;;;;;;;16.58;14.52;;;14.50;99.90;;;;;;5022687;28;20046;-41
2022/06/06 00:22:36;;;;;;;17.92;14.52;;;14.60;99.90;;;;;;5040835;28;20080;-42
2022/06/06 00:25:03;;;;;;;15.77;13.23;;;14.60;99.90;;;;;;5040631;28;20563;-41
2022/06/06 00:27:28;;;;;;;20.95;14.65;;;14.50;99.90;;;;;;5020175;28;20484;-42
2022/06/06 00:29:54;;;;;;;21.52;15.30;;;14.60;99.90;;;;;;5020050;28;20055;-41
2022/06/06 00:35:10;;;;;;;32.05;16.88;;;14.50;99.90;;;;;;5041362;28;20194;-42
2022/06/06 00:37:38;;;;;;;35.55;18.25;;;14.60;99.90;;;;;;5041697;28;20492;-42
2022/06/06 00:40:06;;;;;;;26.02;16.10;;;14.50;99.90;;;;;;5042850;28;20156;-42
2022/06/06 00:42:35;;;;;;;23.67;15.35;;;14.50;99.90;;;;;;5044024;28;20049;-42
2022/06/06 00:45:30;;;;;;;32.67;17.70;;;14.50;99.90;;;;;;5039434;28;20411;-42
2022/06/06 00:48:04;;;;;;;23.52;15.20;;;14.40;99.90;;;;;;5023145;28;20052;-41
2022/06/06 00:50:45;;;;;;;22.63;14.77;;;14.40;99.90;;;;;;5024091;28;20140;-41
2022/06/06 00:53:14;;;;;;;22.20;15.85;;;14.50;99.90;;;;;;5022909;28;20144;-42
2022/06/06 00:55:45;;;;;;;16.27;13.98;;;14.40;99.90;;;;;;5034575;28;20403;-43
2022/06/06 00:58:19;;;;;;;18.08;13.02;;;14.30;99.90;;;;;;5039741;28;20391;-41
2022/06/06 01:00:52;;;;;;;20.83;13.40;;;14.40;99.90;;;;;;5040315;28;20071;-42
2022/06/06 01:03:23;;;;;;;17.52;12.75;;;14.40;99.90;;;;;;5019680;28;20064;-42
2022/06/06 01:05:50;;;;;;;17.80;12.48;;;14.30;99.90;;;;;;5019050;28;20504;-43
2022/06/06 01:08:18;;;;;;;17.77;11.32;;;14.30;99.90;;;;;;5040376;28;20053;-43
2022/06/06 01:10:44;;;;;;;18.98;11.40;;;14.30;99.90;;;;;;5040618;28;20053;-43
2022/06/06 01:13:12;;;;;;;17.45;12.32;;;14.30;99.90;;;;;;5040129;28;20349;-42
2022/06/06 01:15:53;;;;;;;18.33;11.93;;;14.30;99.90;;;;;;5022846;28;20060;-42
2022/06/06 01:18:34;;;;;;;17.00;11.85;;;14.30;99.90;;;;;;5040225;28;20048;-44
2022/06/06 01:21:24;;;;;;;18.80;12.02;;;14.20;99.90;;;;;;5022785;28;20049;-45
2022/06/06 01:24:27;;;;;;;16.05;11.68;;;14.20;99.90;;;;;;5039278;28;20065;-42
2022/06/06 01:27:19;;;;;;;15.50;12.75;;;14.20;99.90;;;;;;5039043;28;20531;-43
2022/06/06 01:29:51;;;;;;;17.38;11.70;;;14.20;99.90;;;;;;5022399;28;20061;-42
2022/06/06 01:32:21;;;;;;;20.00;12.82;;;14.20;99.90;;;;;;5040160;28;20512;-43
2022/06/06 01:34:51;;;;;;;13.95;11.23;;;14.20;99.90;;;;;;5039750;28;20045;-42
2022/06/06 01:37:29;;;;;;;16.38;12.35;;;14.10;99.90;;;;;;5039731;28;20114;-42
2022/06/06 01:39:57;;;;;;;16.45;12.32;;;14.10;99.90;;;;;;5027108;28;20053;-43
2022/06/06 01:42:30;;;;;;;18.52;12.75;;;14.10;99.90;;;;;;5044456;28;20385;-42
2022/06/06 01:45:02;;;;;;;17.42;12.93;;;14.10;99.90;;;;;;5025157;28;20452;-43
2022/06/06 01:47:42;;;;;;;18.50;11.73;;;14.10;99.90;;;;;;5044160;28;20482;-42
2022/06/06 01:50:09;;;;;;;16.30;12.60;;;14.10;99.90;;;;;;5044407;28;20053;-42
2022/06/06 01:52:53;;;;;;;15.30;12.85;;;14.10;99.90;;;;;;5042976;28;20041;-42
2022/06/06 01:55:19;;;;;;;13.13;11.70;;;14.10;99.90;;;;;;5048318;28;20061;-43
2022/06/06 01:57:47;;;;;;;16.95;12.30;;;14.10;99.90;;;;;;5044866;28;20274;-42
2022/06/06 02:00:14;;;;;;;18.13;12.70;;;14.10;99.90;;;;;;5023584;28;20050;-43
2022/06/06 02:02:43;;;;;;;15.73;12.85;;;14.10;99.90;;;;;;5024081;28;20053;-42
2022/06/06 02:05:11;;;;;;;17.48;12.18;;;14.20;99.90;;;;;;5024875;28;20059;-42
2022/06/06 02:07:42;;;;;;;14.20;11.65;;;14.10;99.90;;;;;;5023718;28;20053;-42
2022/06/06 02:10:10;;;;;;;14.77;11.73;;;14.10;99.90;;;;;;5023095;28;20091;-44
2022/06/06 02:12:38;;;;;;;14.52;12.25;;;14.10;99.90;;;;;;5022445;28;20162;-42
2022/06/06 02:15:06;;;;;;;14.73;12.52;;;14.20;99.90;;;;;;5022666;28;20053;-43
2022/06/06 02:17:32;;;;;;;17.50;12.73;;;14.20;99.90;;;;;;5023087;28;20057;-42
2022/06/06 02:19:59;;;;;;;20.90;11.77;;;14.20;99.90;;;;;;5005985;28;20619;-42
2022/06/06 02:22:24;;;;;;;18.23;13.13;;;14.20;99.90;;;;;;5024539;28;20073;-42
2022/06/06 02:24:50;;;;;;;13.77;12.20;;;14.20;99.90;;;;;;5022102;28;20115;-42
2022/06/06 02:27:16;;;;;;;13.32;11.88;;;14.20;99.90;;;;;;5023559;28;20388;-42
2022/06/06 02:29:43;;;;;;;12.18;10.90;;;14.20;99.90;;;;;;5023609;28;20091;-42
2022/06/06 02:32:11;;;;;;;15.18;11.68;;;14.20;99.90;;;;;;5022409;28;20064;-41
2022/06/06 02:34:37;;;;;;;13.18;11.75;;;14.20;99.90;;;;;;5023884;28;20053;-42
2022/06/06 02:37:04;;;;;;;15.57;12.07;;;14.20;99.90;;;;;;5021532;28;20049;-43
2022/06/06 02:39:30;;;;;;;15.50;11.02;;;14.30;99.90;;;;;;5023423;28;20045;-42
2022/06/06 02:41:56;;;;;;;16.45;10.80;;;14.30;99.90;;;;;;5021584;28;20057;-42
2022/06/06 02:44:23;;;;;;;12.88;9.35;;;14.20;99.90;;;;;;5005013;28;20562;-43
2022/06/06 02:46:49;;;;;;;15.02;10.25;;;14.30;99.90;;;;;;5021987;28;20135;-42
2022/06/06 02:49:15;;;;;;;15.07;10.00;;;14.20;99.90;;;;;;5019075;28;20058;-43
2022/06/06 02:51:41;;;;;;;12.93;9.70;;;14.20;99.90;;;;;;5024114;28;20058;-43
2022/06/06 02:54:07;;;;;;;16.33;9.15;;;14.20;99.90;;;;;;5023496;28;20042;-42
2022/06/06 02:56:33;;;;;;;9.95;7.90;;;14.20;99.90;;;;;;5022491;28;20575;-44
2022/06/06 02:59:03;;;;;;;10.85;7.88;;;14.20;99.90;;;;;;5024061;28;20100;-42
2022/06/06 03:01:29;;;;;;;10.32;8.13;;;14.30;99.90;;;;;;5019377;28;20061;-43
2022/06/06 03:03:55;;;;;;;14.27;8.88;;;14.30;99.90;;;;;;5019856;28;20393;-42
2022/06/06 03:06:43;;;;;;;12.23;8.95;;;14.20;99.90;;;;;;5023682;28;20064;-44
2022/06/06 03:09:24;;;;;;;13.05;8.38;;;14.30;99.90;;;;;;5026151;28;20061;-42
2022/06/06 03:12:23;;;;;;;9.57;7.22;;;14.30;99.90;;;;;;5019806;28;20061;-47
2022/06/06 03:15:00;;;;;;;11.65;7.75;;;14.30;99.90;;;;;;5022429;28;20057;-43
2022/06/06 03:23:22;;;;;;;7.35;5.75;;;14.30;99.90;;;;;;5022231;28;20603;-43
2022/06/06 03:25:54;;;;;;;7.25;5.13;;;14.30;99.90;;;;;;5020584;28;20087;-44
2022/06/06 03:29:00;;;;;;;6.88;5.15;;;14.30;99.90;;;;;;5017096;28;20144;-44
2022/06/06 03:31:41;;;;;;;9.07;5.95;;;14.30;99.90;;;;;;5014292;28;20067;-42
2022/06/06 03:34:38;;;;;;;10.98;9.10;;;14.20;99.90;;;;;;5017688;28;20101;-42
2022/06/06 03:37:22;;;;;;;14.32;12.98;;;14.30;99.90;;;;;;5021339;28;20073;-43
2022/06/06 03:39:51;;;;;;;15.32;13.68;;;14.30;99.90;;;;;;5012996;28;20148;-42
2022/06/06 03:42:25;;;;;;;13.45;12.15;;;14.30;99.90;;;;;;5022557;28;20053;-42
2022/06/06 03:45:10;;;;;;;15.82;12.23;;;14.20;99.90;;;;;;5021853;28;20046;-43
2022/06/06 03:47:42;;;;;;;12.85;11.65;;;14.20;99.90;;;;;;5021036;28;20523;-42
2022/06/06 03:50:19;;;;;;;12.82;11.30;;;14.10;99.90;;;;;;5022340;28;20602;-41
2022/06/06 03:52:58;;;;;;;13.25;11.82;;;14.10;99.90;;;;;;5021985;28;20499;-44
2022/06/06 03:55:27;;;;;;;11.45;10.23;;;14.00;99.90;;;;;;5022725;28;20119;-42
2022/06/06 03:57:56;;;;;;;13.65;10.82;;;14.00;99.90;;;;;;5022770;28;20077;-43
2022/06/06 04:00:26;;;;;;;14.57;11.95;;;14.00;99.90;;;;;;5019816;28;20065;-42
2022/06/06 04:02:55;;;;;;;15.15;10.38;;;13.90;99.90;;;;;;5020961;28;20493;-42
2022/06/06 04:05:24;;;;;;;16.02;11.50;;;14.00;99.90;;;;;;5021437;28;20053;-41
2022/06/06 04:07:50;;;;;;;10.90;8.82;;;13.90;99.90;;;;;;5021937;28;20119;-43
2022/06/06 04:10:17;;;;;;;10.93;8.13;;;13.80;99.90;;;;;;5021818;28;20049;-42
2022/06/06 04:13:00;;;;;;;12.10;8.73;;;13.80;99.90;;;;;;5020341;28;20103;-42
2022/06/06 04:15:47;;;;;;;11.50;9.27;;;13.90;99.90;;;;;;5021407;28;20148;-43
2022/06/06 04:18:32;;;;;;;10.05;8.18;;;13.80;99.90;;;;;;5020740;28;20870;-42
2022/06/06 04:21:06;;;;;;;10.50;8.38;;;13.80;99.90;;;;;;5022859;28;20064;-42
2022/06/06 04:23:47;;;;;;;11.90;9.27;;;13.80;99.90;;;;;;5023663;28;20049;-46
2022/06/06 04:26:27;;;;;;;14.38;10.20;;;13.70;99.90;;;;;;5020688;28;20056;-42
2022/06/06 04:29:14;;;;;;;13.52;11.25;;;13.70;99.90;;;;;;5020650;28;20138;-44
2022/06/06 04:32:05;;;;;;;13.73;11.05;;;13.60;99.90;;;;;;5020499;28;20496;-43
2022/06/06 04:34:53;;;;;;;14.10;11.90;;;13.70;99.90;;;;;;5020832;28;20450;-43
2022/06/06 04:37:28;;;;;;;17.38;13.05;;;13.70;99.90;;;;;;5021406;28;20060;-43
2022/06/06 04:40:03;;;;;;;23.73;15.90;;;13.70;99.90;;;;;;5020682;28;20056;-45
2022/06/06 04:42:43;;;;;;;23.08;14.68;;;13.70;99.90;;;;;;5020575;28;20056;-42
2022/06/06 04:45:40;;;;;;;21.70;15.57;;;13.70;99.90;;;;;;5021215;28;20412;-44
2022/06/06 04:48:06;;;;;;;23.65;16.33;;;13.70;99.90;;;;;;5021037;28;20053;-42
2022/06/06 04:50:33;;;;;;;31.95;19.25;;;13.70;99.90;;;;;;5020805;28;20115;-43
2022/06/06 04:53:08;;;;;;;31.83;19.40;;;13.60;99.90;;;;;;5016000;28;20068;-42
2022/06/06 04:55:36;;;;;;;31.85;18.10;;;13.60;99.90;;;;;;5016724;28;20046;-43
2022/06/06 04:58:04;;;;;;;28.85;17.23;;;13.60;99.90;;;;;;5021300;28;20602;-42
2022/06/06 05:00:40;;;;;;;33.67;17.42;;;13.50;99.90;;;;;;5017851;28;20460;-43
2022/06/06 05:03:06;;;;;;;26.52;14.68;;;13.50;99.90;;;;;;5020484;28;20128;-42
2022/06/06 05:06:10;;;;;;;25.80;14.93;;;13.50;99.90;;;;;;5018842;28;20141;-43
2022/06/06 05:08:53;;;;;;;23.65;14.70;;;13.50;99.90;;;;;;5021473;28;20042;-42
2022/06/06 05:11:29;;;;;;;21.95;13.13;;;13.40;99.90;;;;;;5021755;28;20061;-43
2022/06/06 05:14:25;;;;;;;24.17;13.45;;;13.40;99.90;;;;;;5024375;28;20595;-43
2022/06/06 05:17:16;;;;;;;27.05;14.25;;;13.40;99.90;;;;;;5024527;28;20059;-43
2022/06/06 05:20:00;;;;;;;22.30;13.95;;;13.40;99.90;;;;;;5023036;28;20059;-42
2022/06/06 05:23:04;;;;;;;21.52;13.25;;;13.50;99.90;;;;;;5023618;28;20053;-43
2022/06/06 05:25:54;;;;;;;25.30;14.13;;;13.50;99.90;;;;;;5018688;28;20400;-44
2022/06/06 05:29:05;;;;;;;25.17;13.98;;;13.40;99.90;;;;;;5023214;28;20108;-43
2022/06/06 05:32:08;;;;;;;18.77;13.63;;;13.40;99.90;;;;;;5021021;28;20136;-43
2022/06/06 05:34:45;;;;;;;21.35;13.57;;;13.30;99.90;;;;;;5024797;28;20046;-44
2022/06/06 05:37:32;;;;;;;19.25;11.98;;;13.40;99.90;;;;;;5026228;28;20049;-46
2022/06/06 05:40:20;;;;;;;23.05;12.05;;;13.40;99.90;;;;;;5025084;28;20060;-44
2022/06/06 05:43:05;;;;;;;13.93;10.35;;;13.40;99.90;;;;;;5022060;28;20061;-43
2022/06/06 05:45:57;;;;;;;13.90;9.88;;;13.40;99.90;;;;;;5018692;28;20144;-42
2022/06/06 05:48:59;;;;;;;14.68;10.25;;;13.50;99.90;;;;;;5020053;28;20064;-43
2022/06/06 05:51:37;;;;;;;10.88;8.93;;;13.50;99.90;;;;;;5024641;28;20044;-44
2022/06/06 05:54:42;;;;;;;10.98;8.10;;;13.60;99.90;;;;;;5023571;28;20571;-43
2022/06/06 05:57:40;;;;;;;10.75;7.63;;;13.70;99.90;;;;;;5021308;28;20325;-43
2022/06/06 06:00:08;;;;;;;7.70;6.47;;;13.70;99.90;;;;;;5028155;28;20061;-43
2022/06/06 06:02:53;;;;;;;6.47;4.75;;;13.90;99.90;;;;;;5043804;28;20175;-43
2022/06/06 06:05:25;;;;;;;5.53;4.63;;;14.00;99.90;;;;;;5024151;28;20145;-42
2022/06/06 06:07:54;;;;;;;8.18;5.18;;;13.90;99.90;;;;;;5043205;28;20048;-43
2022/06/06 06:10:47;;;;;;;8.90;5.63;;;14.00;99.90;;;;;;5044213;28;20060;-44
2022/06/06 06:13:40;;;;;;;8.35;5.57;;;14.00;99.90;;;;;;5025343;28;20522;-43
2022/06/06 06:16:10;;;;;;;9.10;5.30;;;14.10;99.90;;;;;;5025507;28;20442;-42
2022/06/06 06:18:44;;;;;;;9.23;4.78;;;14.20;99.90;;;;;;5043228;28;20061;-43
2022/06/06 06:21:16;;;;;;;9.05;4.97;;;14.20;99.90;;;;;;5025753;28;20456;-43
2022/06/06 06:23:55;;;;;;;6.35;4.25;;;14.30;99.90;;;;;;5020380;28;20131;-43
2022/06/06 06:26:21;;;;;;;5.93;4.00;;;14.30;99.90;;;;;;5036970;28;20513;-43
2022/06/06 06:28:49;;;;;;;7.57;5.50;;;14.30;99.90;;;;;;5042477;28;20413;-44
2022/06/06 06:32:08;;;;;;;6.15;5.10;;;14.30;99.90;;;;;;5043672;28;20131;-44
2022/06/06 06:35:20;;;;;;;7.18;4.70;;;14.30;99.90;;;;;;4926529;29;20055;-43
2022/06/06 06:38:22;;;;;;;8.90;5.00;;;14.40;99.90;;;;;;4884959;29;20996;-43
2022/06/06 06:41:11;;;;;;;6.43;4.80;;;14.40;99.90;;;;;;4879129;29;20134;-43
2022/06/06 06:43:57;;;;;;;10.02;5.13;;;14.40;99.90;;;;;;4884486;29;20120;-43
2022/06/06 06:46:33;;;;;;;7.82;5.22;;;14.50;99.90;;;;;;4885381;29;20524;-43
2022/06/06 06:49:18;;;;;;;8.30;4.88;;;14.40;99.90;;;;;;4888494;29;20063;-43
2022/06/06 06:52:04;;;;;;;9.20;4.07;;;14.40;99.90;;;;;;4881269;29;20201;-45
2022/06/06 06:54:53;;;;;;;8.65;4.25;;;14.40;99.90;;;;;;4869110;29;20093;-43
2022/06/06 06:57:50;;;;;;;7.00;4.45;;;14.40;99.90;;;;;;4884652;29;20130;-42
2022/06/06 07:00:20;;;;;;;11.48;4.80;;;14.50;99.90;;;;;;4874543;29;20071;-43
2022/06/06 07:09:09;;;;;;;4.88;4.38;;;14.80;99.90;;;;;;4945443;28;20085;-45
2022/06/06 07:12:00;;;;;;;7.00;4.20;;;14.90;99.90;;;;;;4999655;28;20124;-43
2022/06/06 07:15:16;;;;;;;7.50;5.03;;;14.90;99.90;;;;;;5003235;28;20555;-42
2022/06/06 07:17:53;;;;;;;6.40;4.07;;;14.80;99.90;;;;;;4959568;28;20050;-43
2022/06/06 07:20:21;;;;;;;6.38;3.70;;;14.90;99.90;;;;;;4960721;28;20486;-42
2022/06/06 07:23:04;;;;;;;6.68;4.25;;;14.90;99.90;;;;;;4943768;28;20074;-44
2022/06/06 07:25:39;;;;;;;6.32;3.92;;;15.00;99.90;;;;;;4958410;28;20057;-43
2022/06/06 07:28:09;;;;;;;7.13;4.20;;;15.10;99.90;;;;;;4959553;28;20055;-44
2022/06/06 07:30:47;;;;;;;7.75;4.47;;;15.30;99.90;;;;;;4960327;28;20043;-42
2022/06/06 07:33:33;;;;;;;5.85;3.92;;;15.40;99.90;;;;;;4976263;28;20604;-43
2022/06/06 07:36:02;;;;;;;5.93;3.78;;;15.60;99.90;;;;;;4999156;28;20140;-42
2022/06/06 07:39:01;;;;;;;8.23;4.30;;;15.70;99.90;;;;;;4999492;28;20053;-43
2022/06/06 07:41:48;;;;;;;6.03;4.93;;;15.80;99.90;;;;;;4993885;28;20228;-43
2022/06/06 07:44:23;;;;;;;6.22;4.70;;;15.60;99.90;;;;;;4999758;28;20162;-43
2022/06/06 07:47:05;;;;;;;10.90;5.40;;;15.40;99.90;;;;;;4999148;28;20089;-43
2022/06/06 07:49:50;;;;;;;10.13;5.95;;;15.30;99.90;;;;;;4998271;28;20380;-45
2022/06/06 07:52:39;;;;;;;7.45;5.30;;;15.20;99.90;;;;;;4982303;28;20092;-42
2022/06/06 07:55:16;;;;;;;8.40;5.80;;;15.00;99.90;;;;;;5022499;28;20053;-42
2022/06/06 07:58:12;;;;;;;10.95;6.47;;;14.90;99.90;;;;;;5016185;28;20054;-43
2022/06/06 08:00:38;;;;;;;12.13;7.43;;;14.90;99.90;;;;;;5029843;28;20063;-43
2022/06/06 08:03:13;;;;;;;14.60;8.55;;;14.80;99.90;;;;;;5044175;28;20064;-44
2022/06/06 08:05:50;;;;;;;11.93;8.25;;;15.00;99.90;;;;;;5042150;28;20060;-44
2022/06/06 08:08:52;;;;;;;12.10;6.65;;;15.30;99.90;;;;;;5023643;28;20092;-45
2022/06/06 08:11:40;;;;;;;13.23;6.85;;;15.60;99.90;;;;;;5023958;28;20241;-43
2022/06/06 08:14:14;;;;;;;13.30;6.65;;;15.90;99.90;;;;;;5041193;28;20049;-43
2022/06/06 08:16:43;;;;;;;12.98;6.20;;;16.10;99.90;;;;;;5023087;28;20160;-43
2022/06/06 08:19:29;;;;;;;13.63;6.50;;;16.30;99.90;;;;;;5023168;28;20143;-43
2022/06/06 08:21:57;;;;;;;11.23;5.53;;;16.40;99.90;;;;;;5039812;28;20806;-44
2022/06/06 08:24:26;;;;;;;9.98;6.35;;;16.50;99.90;;;;;;5040663;28;20051;-45
2022/06/06 08:26:55;;;;;;;8.93;5.10;;;16.60;99.90;;;;;;5041288;28;20141;-44
2022/06/06 08:29:22;;;;;;;10.25;5.28;;;16.50;99.90;;;;;;5040159;28;20041;-43
2022/06/06 08:31:48;;;;;;;7.88;4.55;;;16.50;99.90;;;;;;5040855;28;20411;-44
2022/06/06 08:34:14;;;;;;;10.02;5.35;;;16.30;99.90;;;;;;5018849;28;20060;-43
2022/06/06 08:37:07;;;;;;;9.73;4.57;;;16.40;99.90;;;;;;5019193;28;20089;-45
2022/06/06 08:39:56;;;;;;;6.32;4.20;;;16.70;99.90;;;;;;5040627;28;20127;-43
2022/06/06 08:42:54;;;;;;;7.97;4.72;;;16.80;99.90;;;;;;5025969;28;20511;-43
2022/06/06 08:45:29;;;;;;;7.28;4.07;;;16.80;99.90;;;;;;5039977;28;20068;-43
2022/06/06 08:48:02;;;;;;;5.85;4.15;;;16.60;99.90;;;;;;5041043;28;20072;-42
2022/06/06 08:50:50;;;;;;;8.18;4.63;;;16.80;99.90;;;;;;5039814;28;20049;-44
2022/06/06 08:53:31;;;;;;;7.80;4.70;;;16.90;99.90;;;;;;5039669;28;20048;-43
2022/06/06 08:56:24;;;;;;;9.13;4.60;;;16.80;99.90;;;;;;5039777;28;20165;-44
2022/06/06 08:59:08;;;;;;;8.05;4.63;;;16.60;99.90;;;;;;5040046;28;20099;-43
2022/06/06 09:01:52;;;;;;;6.55;4.20;;;16.40;99.90;;;;;;5012825;28;20052;-45
2022/06/06 09:04:49;;;;;;;10.13;4.68;;;16.40;99.90;;;;;;5013161;28;20060;-43
2022/06/06 09:07:36;;;;;;;8.10;4.45;;;16.60;99.90;;;;;;5021062;28;20496;-43
2022/06/06 09:10:46;;;;;;;9.98;4.32;;;17.00;99.90;;;;;;5008876;28;20058;-43
2022/06/06 09:13:46;;;;;;;9.57;3.55;;;17.20;99.90;;;;;;4940800;29;20055;-44
2022/06/06 09:16:49;;;;;;;6.35;3.92;;;17.00;99.90;;;;;;4960905;28;20086;-46
2022/06/06 09:19:38;;;;;;;7.63;4.30;;;16.80;99.90;;;;;;4944045;28;20510;-44
2022/06/06 09:22:45;;;;;;;8.52;4.47;;;16.80;99.90;;;;;;4960167;28;20054;-43
2022/06/06 09:25:59;;;;;;;6.85;3.67;;;16.80;99.90;;;;;;4899964;29;20052;-43
2022/06/06 09:29:02;;;;;;;6.18;2.92;;;17.00;99.90;;;;;;4901576;29;20104;-43
2022/06/06 09:31:44;;;;;;;6.57;2.72;;;16.70;99.90;;;;;;4901806;29;20048;-43
2022/06/06 09:34:33;;;;;;;7.30;3.72;;;16.70;99.90;;;;;;4901537;29;20167;-45
2022/06/06 09:37:06;;;;;;;8.95;3.13;;;17.00;99.90;;;;;;4901275;29;20064;-43
2022/06/06 09:39:35;;;;;;;8.73;3.28;;;17.40;99.90;;;;;;4901843;29;20071;-43
2022/06/06 09:42:48;;;;;;;8.45;3.35;;;17.70;99.90;;;;;;4884384;29;20131;-43
2022/06/06 09:45:29;;;;;;;6.18;3.33;;;17.60;99.90;;;;;;4863741;29;20640;-44
2022/06/06 09:48:33;;;;;;;10.50;3.28;;;17.60;99.90;;;;;;4864060;29;20052;-44
2022/06/06 09:51:11;;;;;;;8.48;3.35;;;17.70;99.90;;;;;;4898633;29;20132;-43
2022/06/06 09:59:52;;;;;;;9.43;3.03;;;18.20;99.90;;;;;;4960507;28;20050;-43
2022/06/06 10:02:39;;;;;;;7.03;2.50;;;18.30;99.90;;;;;;4962200;28;20094;-43
2022/06/06 10:05:29;;;;;;;8.45;2.17;;;18.30;99.90;;;;;;4962099;28;20130;-43
2022/06/06 10:08:22;;;;;;;6.20;2.20;;;18.30;99.90;;;;;;4961809;28;20058;-45
2022/06/06 10:10:53;;;;;;;;;;;18.30;99.90;;;;;;4957167;28;20051;-44
2022/06/06 10:13:38;;;;;;;5.45;2.25;;;18.40;99.90;;;;;;4961063;28;19933;-43
2022/06/06 10:16:25;;;;;;;6.93;2.38;;;18.50;99.90;;;;;;4995233;28;20064;-43
2022/06/06 10:19:13;;;;;;;6.40;2.55;;;18.50;99.90;;;;;;5023486;28;20061;-45
2022/06/06 10:22:06;;;;;;;8.73;2.90;;;18.50;99.90;;;;;;5022484;28;20089;-45
2022/06/06 10:24:31;;;;;;;6.97;2.38;;;18.40;99.90;;;;;;5019306;28;20054;-44
2022/06/06 10:27:18;;;;;;;8.40;2.20;;;18.50;99.90;;;;;;5023253;28;20416;-44
2022/06/06 10:30:11;;;;;;;11.45;3.17;;;18.70;99.90;;;;;;5022210;28;20037;-44
2022/06/06 10:32:39;;;;;;;7.57;2.60;;;18.70;99.90;;;;;;5024726;28;20048;-44
2022/06/06 10:35:14;;;;;;;11.60;2.20;;;18.80;99.90;;;;;;5022544;28;20520;-45
2022/06/06 10:38:04;;;;;;;10.73;2.33;;;18.80;99.90;;;;;;5016434;28;20077;-47
2022/06/06 10:40:48;;;;;;;8.23;2.00;;;18.50;99.90;;;;;;5013938;28;20084;-44
2022/06/06 10:43:45;;;;;;;7.85;2.60;;;18.40;99.90;;;;;;5022052;28;20042;-46
2022/06/06 10:46:21;;;;;;;6.25;1.63;;;18.50;99.90;;;;;;5022097;28;20136;-46
2022/06/06 10:49:09;;;;;;;8.77;2.08;;;18.70;99.90;;;;;;5021440;28;20049;-44
2022/06/06 10:51:54;;;;;;;8.10;2.08;;;18.70;99.90;;;;;;5023909;28;20054;-44
2022/06/06 10:54:51;;;;;;;7.80;2.20;;;18.60;99.90;;;;;;5020623;28;20053;-44
2022/06/06 10:57:59;;;;;;;5.30;2.00;;;18.70;99.90;;;;;;5023099;28;20582;-44
2022/06/06 11:01:18;;;;;;;6.30;2.13;;;18.50;99.90;;;;;;5030412;28;20053;-44
2022/06/06 11:04:14;;;;;;;7.75;2.08;;;18.70;99.90;;;;;;4939931;29;20065;-44
2022/06/06 11:07:10;;;;;;;7.88;2.10;;;18.80;99.90;;;;;;5042037;28;20059;-45
2022/06/06 11:10:04;;;;;;;7.78;2.50;;;18.80;99.90;;;;;;5042036;28;20048;-45
2022/06/06 11:12:45;;;;;;;9.32;2.30;;;18.80;99.90;;;;;;5042320;28;20494;-44
2022/06/06 11:15:11;;;;;;;10.80;2.78;;;18.90;99.90;;;;;;5041557;28;20416;-45
2022/06/06 11:17:58;;;;;;;6.03;2.30;;;18.90;99.90;;;;;;5021478;28;20059;-45
2022/06/06 11:20:28;;;;;;;7.85;2.30;;;18.70;99.90;;;;;;5040352;28;20049;-44
2022/06/06 11:23:18;;;;;;;4.78;2.20;;;18.70;99.90;;;;;;5042607;28;20123;-44
2022/06/06 11:25:58;;;;;;;6.63;2.72;;;18.50;99.90;;;;;;5016778;28;20367;-44
2022/06/06 11:28:57;;;;;;;5.95;2.40;;;18.50;99.90;;;;;;5040292;28;20234;-46
2022/06/06 11:31:41;;;;;;;5.43;1.95;;;18.60;99.90;;;;;;5037896;28;20412;-44
2022/06/06 11:34:37;;;;;;;6.07;2.58;;;18.50;99.90;;;;;;5020937;28;20107;-45
2022/06/06 11:37:41;;;;;;;9.68;2.97;;;18.50;99.90;;;;;;5018406;28;20049;-44
2022/06/06 11:40:16;;;;;;;;;;;18.60;99.90;;;;;;5035908;28;20052;-44
2022/06/06 11:43:14;;;;;;;4.45;2.03;;;18.70;99.90;;;;;;5042288;28;20158;-46
2022/06/06 11:46:10;;;;;;;8.18;3.17;;;18.80;99.90;;;;;;5016641;28;20056;-45
2022/06/06 11:49:08;;;;;;;6.95;2.40;;;18.80;99.90;;;;;;5021184;28;20507;-47
2022/06/06 11:52:01;;;;;;;6.57;2.38;;;18.80;99.90;;;;;;5020575;28;20083;-43
2022/06/06 11:54:53;;;;;;;9.00;2.17;;;18.60;99.90;;;;;;5045604;28;20048;-44
2022/06/06 11:57:46;;;;;;;6.38;2.60;;;18.60;99.90;;;;;;5040621;28;20143;-48
2022/06/06 12:00:28;;;;;;;7.03;2.53;;;18.50;99.90;;;;;;5042144;28;20139;-46
2022/06/06 12:03:06;;;;;;;6.40;2.40;;;18.10;99.90;;;;;;5023382;28;20061;-44
2022/06/06 12:06:03;;;;;;;4.90;2.33;;;17.90;99.90;;;;;;5041643;28;20298;-45
2022/06/06 12:08:50;;;;;;;5.03;2.53;;;17.80;99.90;;;;;;5040891;28;20084;-44
2022/06/06 12:11:36;;;;;;;7.55;2.70;;;17.90;99.90;;;;;;5040805;28;20052;-45
2022/06/06 12:14:05;;;;;;;5.28;2.45;;;18.10;99.90;;;;;;5022253;28;20465;-44
2022/06/06 12:16:56;;;;;;;7.47;3.17;;;18.30;99.90;;;;;;5041552;28;20051;-43
2022/06/06 12:19:48;;;;;;;8.85;3.58;;;18.60;99.90;;;;;;5041576;28;20119;-45
2022/06/06 12:22:53;;;;;;;7.47;2.30;;;18.70;99.90;;;;;;5034899;28;20095;-44
2022/06/06 12:25:30;;;;;;;7.68;3.00;;;18.50;99.90;;;;;;4961495;28;20096;-44
2022/06/06 12:28:14;;;;;;;12.10;3.30;;;18.50;99.90;;;;;;4976889;28;20458;-46
2022/06/06 12:31:04;;;;;;;8.07;2.50;;;18.20;99.90;;;;;;4977471;28;20061;-45
2022/06/06 12:34:02;;;;;;;6.35;2.42;;;18.00;99.90;;;;;;4977278;28;20046;-45
2022/06/06 12:36:40;;;;;;;8.77;3.00;;;18.30;99.90;;;;;;4965623;28;20069;-44
2022/06/06 12:39:23;;;;;;;4.18;2.40;;;18.10;99.90;;;;;;4962347;28;20046;-46
2022/06/06 12:41:49;;;;;;;;;;;17.50;99.90;;;;;;4978416;28;20539;-45
2022/06/06 12:44:49;;;;;;;6.00;2.88;;;17.20;99.90;;;;;;4978674;28;20016;-45
2022/06/06 12:48:00;;;;;;;8.40;4.40;;;17.20;99.90;;;;;;4953026;28;20058;-45
2022/06/06 12:50:39;;;;;;;6.68;3.30;;;17.10;99.90;;;;;;4942926;28;20539;-45
2022/06/06 12:53:32;;;;;;;7.03;3.22;;;17.00;99.90;;;;;;4939115;28;20589;-43
2022/06/06 12:59:06;;;;;;;8.45;4.05;;;16.90;99.90;;;;;;4952035;28;20050;-43
2022/06/06 13:02:00;;;;;;;5.95;3.13;;;16.80;99.90;;;;;;4955851;28;20515;-44
2022/06/06 13:04:35;;;;;;;7.13;2.83;;;16.90;99.90;;;;;;4961891;28;20557;-45
2022/06/06 13:07:38;;;;;;;4.47;2.50;;;17.00;99.90;;;;;;4947184;28;20054;-47
2022/06/06 13:10:07;;;;;;;4.85;2.85;;;17.10;99.90;;;;;;4961891;28;20085;-48
2022/06/06 13:13:03;;;;;;;5.57;2.75;;;17.00;99.90;;;;;;4980786;28;20054;-45
2022/06/06 13:15:45;;;;;;;5.65;2.85;;;17.00;99.90;;;;;;4974796;28;20138;-45
2022/06/06 13:18:41;;;;;;;5.63;2.88;;;17.10;99.90;;;;;;4939388;28;20058;-50
2022/06/06 13:21:42;;;;;;;6.85;3.05;;;17.00;99.90;;;;;;4978690;28;20054;-44
2022/06/06 13:24:07;;;;;;;7.35;2.70;;;16.80;99.90;;;;;;5037194;28;20352;-45
2022/06/06 13:26:50;;;;;;;5.32;2.88;;;16.50;99.90;;;;;;5022303;28;20496;-45
2022/06/06 13:29:42;;;;;;;5.50;3.50;;;16.20;99.90;;;;;;5039641;28;20052;-46
2022/06/06 13:32:11;;;;;;;9.18;4.03;;;16.00;99.90;;;;;;5035821;28;20096;-46
2022/06/06 13:35:04;;;;;;;5.03;3.13;;;16.00;99.90;;;;;;5024235;28;20631;-44
2022/06/06 13:38:01;;;;;;;3.78;2.60;;;15.90;99.90;;;;;;5044953;28;20414;-43
2022/06/06 13:40:57;;;;;;;5.78;3.78;;;15.90;99.90;;;;;;5037601;28;20501;-44
2022/06/06 13:43:26;;;;;;;7.40;3.65;;;15.90;99.90;;;;;;5024005;28;20057;-45
2022/06/06 13:46:06;;;;;;;5.72;3.55;;;15.80;99.90;;;;;;5042804;28;20434;-48
2022/06/06 13:48:58;;;;;;;4.43;4.00;;;15.80;99.90;;;;;;5041386;28;20134;-44
2022/06/06 13:51:42;;;;;;;7.63;5.10;;;15.70;99.90;;;;;;4942899;29;20062;-45
2022/06/06 13:54:25;;;;;;;21.48;5.32;;;15.70;99.90;;;;;;4943607;29;20051;-44
2022/06/06 13:57:06;;;;;;;4.47;2.60;;;15.50;99.90;;;;;;4942256;29;20055;-44
2022/06/06 13:59:53;;;;;;;4.97;2.33;;;15.20;99.90;;;;;;4943625;29;20182;-43
2022/06/06 14:02:22;;;;;;;3.00;2.10;;;15.00;99.90;;;;;;4942082;29;20070;-44
2022/06/06 14:04:50;;;;;;;6.63;2.60;;;14.90;99.90;;;;;;4941268;28;20054;-45
2022/06/06 14:07:37;;;;;;;6.35;3.00;;;14.80;99.90;;;;;;4919216;28;20055;-43
2022/06/06 14:10:09;;;;;;;6.22;3.03;;;14.90;99.90;;;;;;4937066;29;20059;-44
2022/06/06 14:12:56;;;;;;;6.85;3.30;;;14.90;99.90;;;;;;4941912;29;20399;-45